^^

Nearby METAR Reports

 

LIRH - Frosinone (it-Af, Italy
Distance from station: SO 5km
Dati ricevuti: 03/04/2020 09:55
Sereno
Sereno
 Vento da calm
Vento: Calma
Temperatura: 9°C
P.to Rugiada: 5°C
Umidità: 76%
Barometro: 1012 hPa
Summary: Sereno
Visibility: greater than 10 km
2020/04/03 07:55 LIRH 030755Z 00000KT CAVOK 09/05 Q1012
LIRL - Latina (it-Afb), Italy
Distance from station: OSO 40km
Dati ricevuti: 03/04/2020 09:55
Sereno
Sereno
 Vento da calm
Vento: Calma
Temperatura: 13°C
P.to Rugiada: 5°C
Umidità: 59%
Barometro: 1012 hPa
Summary: Sereno
Visibility: greater than 10 km
2020/04/03 07:55 LIRL 030755Z 00000KT CAVOK 13/05 Q1012
 
LIRG - Guidonia (it-Afb, Italy
Distance from station: NO 63km
Dati ricevuti: 03/04/2020 09:55
Sereno
Sereno
 Vento da ONO
Vento: ONO 6 km/h
Temperatura: 10°C
P.to Rugiada: 3°C
Umidità: 62%
Barometro: 1013 hPa
Summary: Sereno
Visibility: greater than 10 km
2020/04/03 07:55 LIRG 030755Z 29003KT CAVOK 10/03 Q1013
LIRA - Ciampino(It-Afb/, Italy
Distance from station: ONO 64km
Dati ricevuti: 03/04/2020 10:20
Sereno
Sereno
 Vento da NNE
Vento: NNE 7 km/h
Temperatura: 10°C
Temperatura del Vento: 9°C
P.to Rugiada: 2°C
Umidità: 58%
Barometro: 1012 hPa
Summary: Sereno
Visibility: greater than 10 km
2020/04/03 08:20 LIRA 030820Z 03004KT 360V060 CAVOK 10/02 Q1012
 
LIRU - Roma/Urbe (it-Af, Italy
Distance from station: ONO 76km
Dati ricevuti: 03/04/2020 09:50
Sereno
Sereno
 Vento da varies
Vento: varies 6 km/h
Temperatura: 9°C
P.to Rugiada: 3°C
Umidità: 66%
Barometro: 1013 hPa
Summary: Sereno
Visibility: greater than 10 km
2020/04/03 07:50 LIRU 030750Z VRB03KT CAVOK 09/03 Q1013
LIRE - Pratica Di Mare(, Italy
Distance from station: O 77km
Dati ricevuti: 03/04/2020 09:55
Sereno
Sereno
 Vento da ENE
Vento: ENE 6 km/h
Temperatura: 11°C
P.to Rugiada: 5°C
Umidità: 67%
Barometro: 1012 hPa
Summary: Sereno
Visibility: greater than 10 km
2020/04/03 07:55 LIRE 030755Z 06003KT CAVOK 11/05 Q1012 RMK SKC VIS MIN 9999 WIND THR13 06004KT WIND THR31 05005KT BLU
 
LIQN - Rieti, Italy
Distance from station: NNO 92km
Dati ricevuti: 03/04/2020 10:00
Sereno
Sereno
 Vento da varies
Vento: varies 4 km/h
Temperatura: 5°C
P.to Rugiada: 1°C
Umidità: 76%
Barometro: 1011 hPa
Summary: Sereno
Visibility: greater than 10 km
2020/04/03 08:00 LIQN 030800Z VRB02KT CAVOK 05/01 Q1011
LIRK - Terminillo, Italy
Distance from station: NNO 93km
Dati ricevuti: 03/04/2020 09:55

 Vento da varies
Vento: varies 13 km/h
Temperatura: -1°C
Temperatura del Vento: -6°C
P.to Rugiada: -13°C
Umidità: 40%
Barometro: 1010 hPa
2020/04/03 07:55 LIRK 030755Z AUTO VRB07KT //// M01/M13 Q1010
 
LIRF - Roma/Fiumicino, Italy
Distance from station: O 94km
Dati ricevuti: 03/04/2020 10:20
Sereno
Sereno
 Vento da ENE
Vento: ENE 9 km/h
Temperatura: 11°C
P.to Rugiada: 2°C
Umidità: 54%
Barometro: 1012 hPa
Summary: Sereno
Visibility: greater than 10 km
2020/04/03 08:20 LIRF 030820Z 06005KT 020V090 CAVOK 11/02 Q1012 NOSIG
LIRM - Grazzanise (it-A, Italy
Distance from station: SE 94km
Dati ricevuti: 03/04/2020 09:55
Few Clouds
Few Clouds
 Vento da NNE
Vento: NNE 6 km/h
Temperatura: 8°C
P.to Rugiada: 5°C
Umidità: 82%
Barometro: 1012 hPa
Clouds: Few Clouds
Visibility: 10 km
Cloud details: Few Clouds 2134 m
2020/04/03 07:55 LIRM 030755Z 03003KT 9999 FEW070 08/05 Q1012
 
LIBP - Pescara, Italy
Distance from station: NE 108km
Dati ricevuti: 03/04/2020 09:50
Sereno
Sereno
 Vento da SO
Vento: SO 7 km/h
Temperatura: 9°C
Temperatura del Vento: 8°C
P.to Rugiada: 1°C
Umidità: 58%
Barometro: 1014 hPa
Summary: Sereno
Visibility: greater than 10 km
2020/04/03 07:50 LIBP 030750Z 23004KT 190V270 CAVOK 09/01 Q1014
LIRN - Napoli/Capodichino, Italy
Distance from station: SE 120km
Dati ricevuti: 03/04/2020 10:20
Parz. nuvoloso
Parz. nuvoloso
 Vento da N
Vento: N 9 km/h
Temperatura: 11°C
P.to Rugiada: 3°C
Umidità: 58%
Barometro: 1012 hPa
Clouds: Parz. nuvoloso
Visibility: 10 km
Cloud details: Parz. nuvoloso 1372 m
2020/04/03 08:20 LIRN 030820Z 36005KT 9999 SCT045 11/03 Q1012 NOSIG
 
LIRV - Viterbo (it-Mil), Italy
Distance from station: NO 133km
Dati ricevuti: 03/04/2020 09:55
Sereno
Sereno
 Vento da NE
Vento: NE 20 km/h
Temperatura: 9°C
Temperatura del Vento: 6°C
P.to Rugiada: 2°C
Umidità: 62%
Barometro: 1012 hPa
Summary: Sereno
Visibility: greater than 10 km
2020/04/03 07:55 LIRV 030755Z 05011KT CAVOK 09/02 Q1012
LIQC - Capri, Italy
Distance from station: SSE 145km
Dati ricevuti: 03/04/2020 09:55
Molto nuvoloso
Molto nuvoloso
 Vento da NE
Vento: NE 2 km/h
Temperatura: 12°C
P.to Rugiada: 7°C
Umidità: 72%
Barometro: 1010 hPa
Clouds: Molto nuvoloso
Visibility: 10 km
Cloud details: Molto nuvoloso 610 m
2020/04/03 07:55 LIQC 030755Z 05001KT 9999 BKN020 12/07 Q1010 RMK BKN QUK 1 QUL 0 VIS MAR 10 KM VIS MIN 9999
 
LIRT - Trevico, Italy
Distance from station: ESE 172km
Dati ricevuti: 02/04/2020 15:55
Non Attivo
Parz. nuvoloso
Parz. nuvoloso
 Vento da E
Vento: E 9 km/h
Temperatura: 5°C
Temperatura del Vento: 3°C
P.to Rugiada: -4°C
Umidità: 53%
Barometro: 1012 hPa
Clouds: Parz. nuvoloso
Visibility: 10 km
Cloud details: Parz. nuvoloso 122 m
2020/04/02 13:55 LIRT 021355Z 08005KT 010V160 9999 SCT004 05/M04 Q1012
LIRZ - Perugia, Italy
Distance from station: NNO 172km
Dati ricevuti: 03/04/2020 09:50
Sereno
Sereno
 Vento da varies
Vento: varies 4 km/h
Temperatura: 7°C
P.to Rugiada: 1°C
Umidità: 66%
Barometro: 1013 hPa
Summary: Sereno
Visibility: greater than 10 km
2020/04/03 07:50 LIRZ 030750Z VRB02KT CAVOK 07/01 Q1013
 
LIRI - Pontecagnano (af, Italy
Distance from station: SE 177km
Dati ricevuti: 03/04/2020 09:50
Parz. nuvoloso
Parz. nuvoloso
 Vento da calm
Vento: Calma
Temperatura: 13°C
P.to Rugiada: 5°C
Umidità: 59%
Barometro: 1011 hPa
Clouds: Parz. nuvoloso
Visibility: 10 km
Cloud details: Parz. nuvoloso 1372 m
2020/04/03 07:50 LIRI 030750Z 00000KT 9999 SCT045 13/05 Q1011
LIBF - Foggia/Gino Lisa, Italy
Distance from station: E 183km
Dati ricevuti: 03/04/2020 09:50
Sereno
Sereno
 Vento da NNO
Vento: NNO 6 km/h
Temperatura: 8°C
P.to Rugiada: 5°C
Umidità: 82%
Barometro: 1013 hPa
Summary: Sereno
Visibility: greater than 10 km
2020/04/03 07:50 LIBF 030750Z 33003KT 280V360 CAVOK 08/05 Q1013
 
LIQO - Monte Argentario, Italy
Distance from station: ONO 195km
Dati ricevuti: 02/04/2020 15:55
Non Attivo
Sereno
Sereno
 Vento da S
Vento: S 13 km/h
Temperatura: 12°C
P.to Rugiada: -3°C
Umidità: 35%
Barometro: 1012 hPa
Summary: Sereno
Visibility: greater than 10 km
2020/04/02 13:55 LIQO 021355Z 18007KT CAVOK 12/M03 Q1012
LIBA - Amendola (it-Afb, Italy
Distance from station: E 198km
Dati ricevuti: 03/04/2020 09:55
Few Clouds
Few Clouds
 Vento da ONO
Vento: ONO 7 km/h
Temperatura: 8°C
Temperatura del Vento: 7°C
P.to Rugiada: 6°C
Umidità: 87%
Barometro: 1013 hPa
Clouds: Few Clouds
Visibility: 10 km
Cloud details: Few Clouds 1219 m
2020/04/03 07:55 LIBA 030755Z 30004KT 9999 FEW040 08/06 Q1013 RMK BKN BKN180 VIS MIN 9999 WIND THR11 29004KT WIND THR29 /////KT BLU
 
LIBN - Lecce (it-Afb), Italy
Dati ricevuti: 03/04/2020 09:55
Parz. nuvoloso
Parz. nuvoloso
 Vento da NNO
Vento: NNO 7 km/h
Temperatura: 11°C
P.to Rugiada: 6°C
Umidità: 72%
Barometro: 1013 hPa
Clouds: Parz. nuvoloso
Visibility: 10 km
Cloud details: Parz. nuvoloso 914 m
2020/04/03 07:55 LIBN 030755Z 34004KT 9999 SCT030 11/06 Q1013 RMK BKN BKN100 VIS MIN 9999 WIND THR14 01004KT WIND THR32 34004KT BLU
LIPY - Ancona-Falconara, Italy
Dati ricevuti: 03/04/2020 09:50
Sereno
Sereno
 Vento da SO
Vento: SO 7 km/h
Temperatura: 8°C
Temperatura del Vento: 7°C
P.to Rugiada: 2°C
Umidità: 66%
Barometro: 1014 hPa
Summary: Sereno
Visibility: greater than 10 km
2020/04/03 07:50 LIPY 030750Z 23004KT 200V260 CAVOK 08/02 Q1014
 
LICJ - Palermo-Punta Raisi, Italy
Dati ricevuti: 03/04/2020 10:20
Few Clouds
Few Clouds
 Vento da ENE
Vento: ENE 26 km/h
Temperatura: 13°C
P.to Rugiada: 10°C
Umidità: 82%
Barometro: 1009 hPa
Clouds: Few Clouds
Visibility: 10 km
Cloud details: Few Clouds 762 m
2020/04/03 08:20 LICJ 030820Z 06014KT 9999 FEW025 13/10 Q1009
LIEB - Capo Bellavista, Italy
Dati ricevuti: 03/04/2020 09:55
Molto nuvoloso
Molto nuvoloso
 Vento da NO
Vento: NO 7 km/h
Temperatura: 11°C
P.to Rugiada: 8°C
Umidità: 82%
Barometro: 1010 hPa
Clouds: Molto nuvoloso
Visibility: 10 km
Cloud details: Few Clouds 762 m
Molto nuvoloso 914 m
2020/04/03 07:55 LIEB 030755Z 32004KT 9999 FEW025 BKN030 11/08 Q1010 RMK OVC QUK 1 QUL 0 VIS MAR 25 KM MON W CIME INC NC VIS MIN 9999
 
LIEC - Capo Carbonara, Italy
Dati ricevuti: 03/04/2020 09:55
Parz. nuvoloso
Parz. nuvoloso
 Vento da ENE
Vento: ENE 26 km/h
Temperatura: 12°C
P.to Rugiada: 8°C
Umidità: 77%
Barometro: 1010 hPa
Clouds: Parz. nuvoloso
Visibility: 10 km
Cloud details: Parz. nuvoloso 671 m
2020/04/03 07:55 LIEC 030755Z 07014KT 9999 SCT022 12/08 Q1010 RMK BKN SCT060 QUK 2 QUL 0 VIS MAR 18 KM VIS MIN 9999
LIED - Cagliari-Decimomannu(It-A, Italy
Dati ricevuti: 03/04/2020 09:55
Parz. nuvoloso
Parz. nuvoloso
 Vento da NO
Vento: NO 9 km/h
Temperatura: 12°C
P.to Rugiada: 9°C
Umidità: 82%
Barometro: 1010 hPa
Clouds: Parz. nuvoloso
Visibility: 10 km
Cloud details: Few Clouds 549 m
Parz. nuvoloso 1524 m
2020/04/03 07:55 LIED 030755Z 32005KT 9999 FEW018 SCT050 12/09 Q1010 RMK BKN VIS MIN 9999 WIND THR35 34005KT WIND THR17 /////KT BLU
 
LIEE - Cagliari-Elmas(A, Italy
Dati ricevuti: 03/04/2020 10:20
Parz. nuvoloso
Parz. nuvoloso
 Vento da OSO
Vento: OSO 9 km/h
Temperatura: 12°C
P.to Rugiada: 9°C
Umidità: 82%
Barometro: 1011 hPa
Clouds: Parz. nuvoloso
Visibility: 10 km
Cloud details: Parz. nuvoloso 762 m
2020/04/03 08:20 LIEE 030820Z 24005KT 9999 SCT025 12/09 Q1011
LIEO - Olbia-Costa Smeralda, Italy
Dati ricevuti: 03/04/2020 10:20
Few Clouds
Few Clouds
 Vento da varies
Vento: varies 2 km/h
Temperatura: 13°C
P.to Rugiada: 9°C
Umidità: 77%
Barometro: 1012 hPa
Clouds: Few Clouds
Visibility: 10 km
Cloud details: Few Clouds 1524 m
2020/04/03 08:20 LIEO 030820Z VRB01KT 9999 FEW050 13/09 Q1012
 
LIEA - Alghero, Italy
Dati ricevuti: 03/04/2020 10:20
Parz. nuvoloso
Parz. nuvoloso
 Vento da NE
Vento: NE 15 km/h
Temperatura: 13°C
P.to Rugiada: 10°C
Umidità: 82%
Barometro: 1012 hPa
Clouds: Parz. nuvoloso
Visibility: 10 km
Cloud details: Parz. nuvoloso 762 m
2020/04/03 08:20 LIEA 030820Z 04008KT 9999 SCT025 13/10 Q1012
LICA - Catanzaro-Lamezia Terme, Italy
Dati ricevuti: 03/04/2020 09:50
Molto nuvoloso
Molto nuvoloso
 Vento da ENE
Vento: ENE 30 km/h
Temperatura: 12°C
P.to Rugiada: 6°C
Umidità: 67%
Barometro: 1011 hPa
Clouds: Molto nuvoloso
Visibility: 10 km
Cloud details: Few Clouds 762 m
Molto nuvoloso 2438 m
2020/04/03 07:50 LICA 030750Z 07016KT 9999 FEW025 BKN080 12/06 Q1011
 
LIBQ - Cosenza-Monte Scuro, Italy
Dati ricevuti: 03/04/2020 09:55
Molto nuvoloso
Molto nuvoloso
 Vento da varies
Vento: varies 6 km/h
Temperatura: 5°C
P.to Rugiada: 3°C
Umidità: 87%
Barometro: 1007 hPa
Clouds: Molto nuvoloso
Visibility: 3 km
Cloud details: Parz. nuvoloso 61 m
Molto nuvoloso 152 m
2020/04/03 07:55 LIBQ 030755Z VRB03KT 3000 SCT002 BKN005 05/03 Q1007 RMK OVC MON CIME INC VAL FOSCHIA VIS MIN 3000
LICR - Reggio Calabria, Italy
Dati ricevuti: 03/04/2020 09:50
Parz. nuvoloso
Parz. nuvoloso
 Vento da SSO
Vento: SSO 11 km/h
Temperatura: 13°C
P.to Rugiada: 7°C
Umidità: 67%
Barometro: 1010 hPa
Clouds: Parz. nuvoloso
Visibility: 10 km
Cloud details: Parz. nuvoloso 1219 m
2020/04/03 07:50 LICR 030750Z 20006KT 150V230 9999 SCT040 13/07 Q1010
 
LIBV - Bari-Gioia Del Colle, Italy
Dati ricevuti: 03/04/2020 09:55
Few Clouds
Few Clouds
 Vento da SE
Vento: SE 7 km/h
Temperatura: 9°C
Temperatura del Vento: 8°C
P.to Rugiada: 4°C
Umidità: 71%
Barometro: 1011 hPa
Clouds: Few Clouds
Visibility: 10 km
Cloud details: Few Clouds 762 m
2020/04/03 07:55 LIBV 030755Z 13004KT 090V180 9999 FEW025 09/04 Q1011 RMK BKN BKN090 VIS MIN 9999 WIND THR32 14004KT WIND THR14 VRB3KT BLU
LIBD - Bari-Palese Macchie, Italy
Dati ricevuti: 03/04/2020 10:20
Sereno
Sereno
 Vento da ENE
Vento: ENE 11 km/h
Temperatura: 11°C
P.to Rugiada: 5°C
Umidità: 67%
Barometro: 1013 hPa
Summary: Sereno
Visibility: greater than 10 km
2020/04/03 08:20 LIBD 030820Z 07006KT CAVOK 11/05 Q1013
 
LIBR - Brindisi-Casale, Italy
Dati ricevuti: 03/04/2020 10:20
Few Clouds
Few Clouds
 Vento da NNE
Vento: NNE 7 km/h
Temperatura: 12°C
P.to Rugiada: 5°C
Umidità: 63%
Barometro: 1013 hPa
Clouds: Few Clouds
Visibility: 10 km
Cloud details: Few Clouds 610 m
2020/04/03 08:20 LIBR 030820Z 02004KT 350V050 9999 FEW020 12/05 Q1013
LIRT - Trevico, Italy
Dati ricevuti: 02/04/2020 15:55
Non Attivo
Parz. nuvoloso
Parz. nuvoloso
 Vento da E
Vento: E 9 km/h
Temperatura: 5°C
Temperatura del Vento: 3°C
P.to Rugiada: -4°C
Umidità: 53%
Barometro: 1012 hPa
Clouds: Parz. nuvoloso
Visibility: 10 km
Cloud details: Parz. nuvoloso 122 m
2020/04/02 13:55 LIRT 021355Z 08005KT 010V160 9999 SCT004 05/M04 Q1012
 
LICB - Comiso, Italy
Dati ricevuti: 03/04/2020 09:50
Pioviggine, Few clouds
Pioviggine, Few clouds
 Vento da NNE
Vento: NNE 9 km/h
Temperatura: 11°C
P.to Rugiada: 8°C
Umidità: 82%
Barometro: 1009 hPa
Summary: Pioviggine
Clouds: Few Clouds
Visibility: 10 km
Cloud details: Few Clouds 762 m
2020/04/03 07:50 LICB 030750Z 02005KT 350V050 9999 DZ FEW025 11/08 Q1009
LICL - Gela, Italy
Dati ricevuti: 03/04/2020 09:55
Light drizzle, Parz. nuvoloso
Light drizzle, Parz. nuvoloso
 Vento da varies
Vento: varies 19 km/h, Raffica: 39 km/h
Temperatura: 12°C
P.to Rugiada: 9°C
Umidità: 82%
Summary: Light Drizzle
Clouds: Parz. nuvoloso
Visibility: 10 km
Cloud details: Parz. nuvoloso 1524 m
2020/04/03 07:55 LICL 030755Z VRB10G21KT 9999 -DZ SCT050 12/09 Q//// RMK OVC OVC150 QUK 2 QUL 1 SW VIS MAR 10 KM VIS MIN 9999
 
LIBN - Lecce (it-Afb), Italy
Dati ricevuti: 03/04/2020 09:55
Parz. nuvoloso
Parz. nuvoloso
 Vento da NNO
Vento: NNO 7 km/h
Temperatura: 11°C
P.to Rugiada: 6°C
Umidità: 72%
Barometro: 1013 hPa
Clouds: Parz. nuvoloso
Visibility: 10 km
Cloud details: Parz. nuvoloso 914 m
2020/04/03 07:55 LIBN 030755Z 34004KT 9999 SCT030 11/06 Q1013 RMK BKN BKN100 VIS MIN 9999 WIND THR14 01004KT WIND THR32 34004KT BLU
LICJ - Palermo-Punta Raisi, Italy
Dati ricevuti: 03/04/2020 10:20
Few Clouds
Few Clouds
 Vento da ENE
Vento: ENE 26 km/h
Temperatura: 13°C
P.to Rugiada: 10°C
Umidità: 82%
Barometro: 1009 hPa
Clouds: Few Clouds
Visibility: 10 km
Cloud details: Few Clouds 762 m
2020/04/03 08:20 LICJ 030820Z 06014KT 9999 FEW025 13/10 Q1009
 
LICZ - Catania-Sigonella (nas), Italy
Dati ricevuti: 03/04/2020 09:55
Pioviggine, Nuvoloso
Pioviggine, Nuvoloso
 Vento da E
Vento: E 22 km/h
Temperatura: 11°C
P.to Rugiada: 9°C
Umidità: 88%
Barometro: 1011 hPa
Summary: Pioviggine
Clouds: Molto nuvoloso
Visibility: 10 km
Cloud details: Parz. nuvoloso 762 m
Molto nuvoloso 2438 m
2020/04/03 07:55 LICZ 030755Z 08012KT 9999 -RA SCT025 BKN080 11/09 Q1011 RMK OVC VIS MIN 9999 WIND THR28 08011KT WIND THR10 08010KT A2988 BLU
LICC - Catania-Fontanarossa, Italy
Dati ricevuti: 03/04/2020 10:20
Molto nuvoloso
Molto nuvoloso
 Vento da ENE
Vento: ENE 24 km/h
Temperatura: 13°C
P.to Rugiada: 8°C
Umidità: 72%
Barometro: 1011 hPa
Clouds: Molto nuvoloso
Visibility: 10 km
Cloud details: Molto nuvoloso 762 m
2020/04/03 08:20 LICC 030820Z 07013KT 9999 BKN025 13/08 Q1011
 
LICT - Trapani-Birgi (a, Italy
Dati ricevuti: 03/04/2020 09:55
Pioviggine, Few clouds
Pioviggine, Few clouds
 Vento da E
Vento: E 11 km/h
Temperatura: 13°C
P.to Rugiada: 10°C
Umidità: 82%
Barometro: 1010 hPa
Summary: Pioviggine
Clouds: Few Clouds
Visibility: 10 km
Cloud details: Few Clouds 671 m
2020/04/03 07:55 LICT 030755Z 09006KT 9999 -RA FEW022 13/10 Q1010
LICD - Agrigento-Lampedusa, Italy
Dati ricevuti: 03/04/2020 09:50
Sereno
Sereno
 Vento da ENE
Vento: ENE 31 km/h
Temperatura: 15°C
P.to Rugiada: 12°C
Umidità: 82%
Barometro: 1007 hPa
Summary: Sereno
Visibility: greater than 10 km
2020/04/03 07:50 LICD 030750Z 06017KT CAVOK 15/12 Q1007
 
LICG - Pantelleria(It-A, Italy
Dati ricevuti: 03/04/2020 09:50
Parz. nuvoloso
Parz. nuvoloso
 Vento da E
Vento: E 17 km/h
Temperatura: 13°C
P.to Rugiada: 10°C
Umidità: 82%
Barometro: 1009 hPa
Clouds: Parz. nuvoloso
Visibility: 10 km
Cloud details: Few Clouds 366 m
Parz. nuvoloso 671 m
2020/04/03 07:50 LICG 030750Z 08009KT 9999 FEW012 SCT022 13/10 Q1009
LIPX - Villafranca(Cv/M, Italy
Dati ricevuti: 03/04/2020 10:20
Sereno
Sereno
 Vento da ESE
Vento: ESE 7 km/h
Temperatura: 10°C
Temperatura del Vento: 9°C
P.to Rugiada: 0°C
Umidità: 50%
Barometro: 1015 hPa
Clouds: Sereno
Visibility: 10 km
2020/04/03 08:20 LIPX 030820Z AUTO 11004KT 070V160 9999 NCD 10/M00 Q1015
 
LIPO - Brescia/Montichiari, Italy
Dati ricevuti: 03/04/2020 01:50
Non Attivo
Sereno
Sereno
 Vento da NNE
Vento: NNE 9 km/h
Temperatura: 4°C
Temperatura del Vento: 2°C
P.to Rugiada: -1°C
Umidità: 70%
Barometro: 1012 hPa
Summary: Sereno
Visibility: greater than 10 km
2020/04/02 23:50 LIPO 022350Z 02005KT CAVOK 04/M01 Q1012
LIPL - Ghedi (it-Afb), Italy
Dati ricevuti: 03/04/2020 09:55
Parz. nuvoloso
Parz. nuvoloso
 Vento da E
Vento: E 7 km/h
Temperatura: 10°C
Temperatura del Vento: 9°C
P.to Rugiada: 5°C
Umidità: 71%
Barometro: 1013 hPa
Clouds: Parz. nuvoloso
Visibility: 8 km
2020/04/03 07:55 LIPL 030755Z 10004KT 8000 NSC 10/05 Q1013 RMK SKC VIS MIN 8000 WIND THR31 11004KT WIND THR13 09005KT BLU
 
LIMP - Parma, Italy
Dati ricevuti: 03/04/2020 09:50
Sereno
Sereno
 Vento da varies
Vento: varies 4 km/h
Temperatura: 8°C
P.to Rugiada: 6°C
Umidità: 87%
Barometro: 1014 hPa
Summary: Sereno
Visibility: greater than 10 km
2020/04/03 07:50 LIMP 030750Z VRB02KT CAVOK 08/06 Q1014
LIMS - Piacenza (it-Afb, Italy
Dati ricevuti: 03/04/2020 09:55
Sereno
Sereno
 Vento da NO
Vento: NO 4 km/h
Temperatura: 9°C
P.to Rugiada: 2°C
Umidità: 62%
Barometro: 1013 hPa
Summary: Sereno
Visibility: greater than 10 km
2020/04/03 07:55 LIMS 030755Z 32002KT CAVOK 09/02 Q1013
 
LIPF - Ferrara (aut), Italy
Dati ricevuti: 03/04/2020 09:55
Sereno
Sereno
 Vento da varies
Vento: varies 0 km/h
Temperatura: 6°C
P.to Rugiada: 3°C
Umidità: 81%
Barometro: 1014 hPa
Summary: Sereno
Visibility: greater than 10 km
2020/04/03 07:55 LIPF 030755Z /////KT CAVOK 06/03 Q1014
LIPE - Bologna/Borgo (a, Italy
Dati ricevuti: 03/04/2020 10:20
Sereno
Sereno
 Vento da varies
Vento: varies 4 km/h
Temperatura: 10°C
P.to Rugiada: 0°C
Umidità: 50%
Barometro: 1015 hPa
Summary: Sereno
Visibility: greater than 10 km
2020/04/03 08:20 LIPE 030820Z VRB02KT CAVOK 10/00 Q1015
 
LIPU - Padova (civ/It-A, Italy
Dati ricevuti: 03/04/2020 08:00
Non Attivo
Parz. nuvoloso
Parz. nuvoloso
 Vento da varies
Vento: varies 4 km/h
Temperatura: 3°C
P.to Rugiada: 1°C
Umidità: 87%
Barometro: 1014 hPa
Clouds: Parz. nuvoloso
Visibility: 8 km
2020/04/03 06:00 LIPU 030600Z VRB02KT 8000 NSC 03/01 Q1014
LIME - Bergamo/Orio Ser, Italy
Dati ricevuti: 03/04/2020 10:20
Sereno
Sereno
 Vento da varies
Vento: varies 4 km/h
Temperatura: 10°C
P.to Rugiada: -1°C
Umidità: 47%
Barometro: 1014 hPa
Summary: Sereno
Visibility: greater than 10 km
2020/04/03 08:20 LIME 030820Z VRB02KT CAVOK 10/M01 Q1014 NOSIG
 
LIMT - Cisa Pass, Italy
Dati ricevuti: 23/09/2019 13:55
Non Attivo
Nebbia
Nebbia
 Vento da calm
Vento: Calma
Temperatura: 10°C
P.to Rugiada: 10°C
Umidità: 100%
Barometro: 1014 hPa
Summary: Nebbia
Visibility: 0 km
2019/09/23 11:55 LIMT 231155Z 00000KT 0000 FG VV/// 10/10 Q1014 RMK MON INVIS VAL INVIS VIS MIN 0000
LIVC - Cimone Mountain, Italy
Dati ricevuti: 03/04/2020 09:55

 Vento da NNE
Vento: NNE 11 km/h
Temperatura: -2°C
Temperatura del Vento: -6°C
P.to Rugiada: -8°C
Umidità: 64%
Barometro: 1011 hPa
2020/04/03 07:55 LIVC 030755Z AUTO 03006KT //// M02/M08 Q1011
 
LIVP - Paganella Mounta, Italy
Dati ricevuti: 03/04/2020 04:55
Non Attivo
Sereno
Sereno
 Vento da N
Vento: N 15 km/h
Temperatura: -4°C
Temperatura del Vento: -9°C
P.to Rugiada: -8°C
Umidità: 74%
Barometro: 1009 hPa
Summary: Sereno
Visibility: greater than 10 km
2020/04/03 02:55 LIVP 030255Z 35008KT CAVOK M04/M08 Q1009
LIML - Milano/Linate, Italy
Dati ricevuti: 03/04/2020 10:20
Sereno
Sereno
 Vento da SE
Vento: SE 7 km/h
Temperatura: 10°C
Temperatura del Vento: 9°C
P.to Rugiada: 1°C
Umidità: 54%
Barometro: 1014 hPa
Summary: Sereno
Visibility: greater than 10 km
2020/04/03 08:20 LIML 030820Z 14004KT 090V180 CAVOK 10/01 Q1014 NOSIG
 
LIPS - Istrana (it-Afb), Italy
Dati ricevuti: 03/04/2020 09:55
Parz. nuvoloso
Parz. nuvoloso
 Vento da varies
Vento: varies 0 km/h
Temperatura: 9°C
P.to Rugiada: 5°C
Umidità: 76%
Barometro: 1014 hPa
Clouds: Parz. nuvoloso
Visibility: 8 km
2020/04/03 07:55 LIPS 030755Z /////KT 8000 NSC 09/05 Q1014 RMK SKC VIS MIN 8000 WIND THR26 03005KT WIND THR08 06005KT BLU
LIPH - Treviso(Civ/It-A, Italy
Dati ricevuti: 03/04/2020 10:20
Sereno
Sereno
 Vento da varies
Vento: varies 4 km/h
Temperatura: 10°C
P.to Rugiada: 1°C
Umidità: 54%
Barometro: 1015 hPa
Summary: Sereno
Visibility: greater than 10 km
2020/04/03 08:20 LIPH 030820Z VRB02KT CAVOK 10/01 Q1015
 
LIPZ - Venezia/Tessera, Italy
Dati ricevuti: 03/04/2020 10:20
Sereno
Sereno
 Vento da NNE
Vento: NNE 6 km/h
Temperatura: 10°C
P.to Rugiada: 3°C
Umidità: 62%
Barometro: 1015 hPa
Summary: Sereno
Visibility: greater than 10 km
2020/04/03 08:20 LIPZ 030820Z 03003KT 350V110 CAVOK 10/03 Q1015 NOSIG
LIQW - Sarzana/Luni, Italy
Dati ricevuti: 03/04/2020 09:55
Sereno
Sereno
 Vento da ONO
Vento: ONO 4 km/h
Temperatura: 8°C
P.to Rugiada: 2°C
Umidità: 66%
Barometro: 1013 hPa
Summary: Sereno
Visibility: greater than 10 km
2020/04/03 07:55 LIQW 030755Z 29002KT CAVOK 08/02 Q1013
 
LIVR - Rolle Pass, Italy
Dati ricevuti: 03/04/2020 09:55
Sereno
Sereno
 Vento da ONO
Vento: ONO 6 km/h
Temperatura: -2°C
P.to Rugiada: -8°C
Umidità: 64%
Barometro: 1005 hPa
Summary: Sereno
Visibility: greater than 10 km
2020/04/03 07:55 LIVR 030755Z 30003KT CAVOK M02/M08 Q1005 RMK SKC MON LIB VIS MIN 9999
LIPK - Forli (civ/It-Af, Italy
Dati ricevuti: 10/03/2020 17:50
Non Attivo
Sereno
Sereno
 Vento da ENE
Vento: ENE 11 km/h
Temperatura: 14°C
P.to Rugiada: 4°C
Umidità: 51%
Barometro: 1016 hPa
Summary: Sereno
Visibility: greater than 10 km
2020/03/10 16:50 LIPK 101650Z 07006KT CAVOK 14/04 Q1016
 
LIMV - Giovi Pass, Italy
Dati ricevuti: 02/04/2020 15:55
Non Attivo
Sereno
Sereno
 Vento da varies
Vento: varies 0 km/h
Temperatura: 10°C
P.to Rugiada: -4°C
Umidità: 37%
Barometro: 1012 hPa
Summary: Sereno
Visibility: greater than 10 km
2020/04/02 13:55 LIMV 021355Z /////KT CAVOK 10/M04 Q1012
LIPB - Bolzano(Civ/It-A, Italy
Dati ricevuti: 03/04/2020 09:50
Sereno
Sereno
 Vento da calm
Vento: Calma
Temperatura: 8°C
P.to Rugiada: -1°C
Umidità: 53%
Barometro: 1014 hPa
Summary: Sereno
Visibility: greater than 10 km
2020/04/03 07:50 LIPB 030750Z 00000KT CAVOK 08/M01 Q1014
 
LIVD - Bolzano-Dobbiaco, Italy
Dati ricevuti: 03/04/2020 09:55
Sereno
Sereno
 Vento da varies
Vento: varies 0 km/h
Temperatura: 2°C
P.to Rugiada: -4°C
Umidità: 65%
Barometro: 1014 hPa
Summary: Sereno
Visibility: greater than 10 km
2020/04/03 07:55 LIVD 030755Z /////KT CAVOK 02/M04 Q1014 RMK SKC VIS MIN 9999
LIVE - Bolzano-Passo Resia, Italy
Dati ricevuti: 03/04/2020 09:55
Sereno
Sereno
 Vento da NNE
Vento: NNE 11 km/h
Temperatura: 3°C
Temperatura del Vento: 0°C
P.to Rugiada: -3°C
Umidità: 65%
Barometro: 1007 hPa
Summary: Sereno
Visibility: greater than 10 km
2020/04/03 07:55 LIVE 030755Z 02006KT CAVOK 03/M03 Q1007 RMK SKC VIS MIN 9999
 
LIMH - Aosta-Pian Rosa (mtn T, Italy
Dati ricevuti: 10/03/2020 08:55
Non Attivo
Light snow, Freezing, Nebbia
Light snow, Freezing, Nebbia
 Vento da NE
Vento: NE 44 km/h, Raffica: 63 km/h
Temperatura: -9°C
Temperatura del Vento: -20°C
P.to Rugiada: -10°C
Umidità: 93%
Barometro: 1015 hPa
Summary: Light snow, Freezing, Nebbia
Visibility: 0 km
2020/03/10 07:55 LIMH 100755Z 04024G34KT 0200 -SN FZFG VV/// M09/M10 Q1015 RMK MON INVIS VAL INVIS VIS MIN 0200
LIMZ - Cuneo/Levaldigi, Italy
Dati ricevuti: 03/04/2020 09:50
Parz. nuvoloso
Parz. nuvoloso
 Vento da NNO
Vento: NNO 6 km/h
Temperatura: 8°C
P.to Rugiada: 3°C
Umidità: 71%
Barometro: 1014 hPa
Clouds: Parz. nuvoloso
Visibility: 7 km
2020/04/03 07:50 LIMZ 030750Z 34003KT 290V020 7000 NSC 08/03 Q1014
 
LIMK - Torino-Bric Della Croce, Italy
Dati ricevuti: 03/04/2020 09:55
Sereno
Sereno
 Vento da calm
Vento: Calma
Temperatura: 4°C
P.to Rugiada: -1°C
Umidità: 70%
Barometro: 1012 hPa
Summary: Sereno
Visibility: greater than 10 km
2020/04/03 07:55 LIMK 030755Z 00000KT CAVOK 04/M01 Q1012 RMK SKC VAL FOSCHIA SKC SUP VIS MIN 9999
LIMN - Novara-Cameri (it-Afb), Italy
Dati ricevuti: 03/04/2020 09:55
Sereno
Sereno
 Vento da ENE
Vento: ENE 6 km/h
Temperatura: 9°C
P.to Rugiada: 0°C
Umidità: 54%
Barometro: 1013 hPa
Summary: Sereno
Visibility: greater than 10 km
2020/04/03 07:55 LIMN 030755Z 06003KT 010V120 CAVOK 09/M00 Q1013 RMK SKC VIS MIN 9999 BLU
 
LIPA - Pordenone-Aviano (it/Us-Af, Italy
Dati ricevuti: 03/04/2020 09:55
Sereno
Sereno
 Vento da E
Vento: E 7 km/h
Temperatura: 9°C
Temperatura del Vento: 8°C
P.to Rugiada: 2°C
Umidità: 62%
Barometro: 1014 hPa
Summary: Sereno
Visibility: greater than 10 km
2020/04/03 07:55 LIPA 030755Z 09004KT CAVOK 09/02 Q1014 RMK SKC VIS MIN 9999 WIND THR05 /////KT WIND THR23 /////KT A2995 BLU
LIPI - Udine-Rivolto (it-Afb), Italy
Dati ricevuti: 03/04/2020 09:55
Sereno
Sereno
 Vento da varies
Vento: varies 4 km/h
Temperatura: 9°C
P.to Rugiada: 3°C
Umidità: 66%
Barometro: 1014 hPa
Summary: Sereno
Visibility: greater than 10 km
2020/04/03 07:55 LIPI 030755Z VRB02KT CAVOK 09/03 Q1014 RMK SKC VIS MIN 9999 WIND THR06 04002KT WIND THR24 VRB01KT BLU
 
LIVO - Udine-Tarvisio, Italy
Dati ricevuti: 03/04/2020 09:55
Sereno
Sereno
 Vento da SSE
Vento: SSE 4 km/h
Temperatura: 2°C
P.to Rugiada: -3°C
Umidità: 70%
Barometro: 1012 hPa
Summary: Sereno
Visibility: greater than 10 km
2020/04/03 07:55 LIVO 030755Z 16002KT CAVOK 02/M03 Q1012 RMK FEW FEW120 VIS MIN 9999
LIPQ - Trieste-Ronchi Dei Legionari, Italy
Dati ricevuti: 03/04/2020 10:20
Sereno
Sereno
 Vento da varies
Vento: varies 4 km/h
Temperatura: 11°C
P.to Rugiada: 2°C
Umidità: 54%
Barometro: 1015 hPa
Clouds: Sereno
Visibility: 10 km
2020/04/03 08:20 LIPQ 030820Z AUTO VRB02KT 9999 NCD 11/02 Q1015
 
LIVT - Trieste, Italy
Dati ricevuti: 03/04/2020 09:55
Sereno
Sereno
 Vento da varies
Vento: varies 0 km/h
Temperatura: 10°C
P.to Rugiada: 4°C
Umidità: 67%
Barometro: 1014 hPa
Summary: Sereno
Visibility: greater than 10 km
2020/04/03 07:55 LIVT 030755Z /////KT CAVOK 10/04 Q1014 RMK SKC QUK 0 QUL 0 VIS MAR 20 KM VIS MIN 9999
LIRQ - Firenze/Peretola, Italy
Dati ricevuti: 03/04/2020 10:20
Sereno
Sereno
 Vento da varies
Vento: varies 4 km/h
Temperatura: 9°C
P.to Rugiada: 1°C
Umidità: 58%
Barometro: 1013 hPa
Summary: Sereno
Visibility: greater than 10 km
2020/04/03 08:20 LIRQ 030820Z VRB02KT CAVOK 09/01 Q1013
 
LIPK - Forli (civ/It-Af, Italy
Dati ricevuti: 10/03/2020 17:50
Non Attivo
Sereno
Sereno
 Vento da ENE
Vento: ENE 11 km/h
Temperatura: 14°C
P.to Rugiada: 4°C
Umidità: 51%
Barometro: 1016 hPa
Summary: Sereno
Visibility: greater than 10 km
2020/03/10 16:50 LIPK 101650Z 07006KT CAVOK 14/04 Q1016
LIRS - Grosseto (it-Afb, Italy
Dati ricevuti: 03/04/2020 09:55
Sereno
Sereno
 Vento da varies
Vento: varies 4 km/h
Temperatura: 9°C
P.to Rugiada: 3°C
Umidità: 66%
Barometro: 1012 hPa
Summary: Sereno
Visibility: greater than 10 km
2020/04/03 07:55 LIRS 030755Z VRB02KT CAVOK 09/03 Q1012
 
LIRP - Pisa (civ/It-Afb, Italy
Dati ricevuti: 03/04/2020 10:15
Sereno
Sereno
 Vento da ESE
Vento: ESE 7 km/h
Temperatura: 10°C
Temperatura del Vento: 9°C
P.to Rugiada: 3°C
Umidità: 62%
Barometro: 1014 hPa
Summary: Sereno
Visibility: greater than 10 km
2020/04/03 08:15 LIRP 030815Z 11004KT CAVOK 10/03 Q1014 NOSIG
LIVF - Frontone, Italy
Dati ricevuti: 03/04/2020 04:55
Non Attivo
Sereno
Sereno
 Vento da SSE
Vento: SSE 4 km/h
Temperatura: 3°C
P.to Rugiada: -3°C
Umidità: 65%
Barometro: 1010 hPa
Summary: Sereno
Visibility: greater than 10 km
2020/04/03 02:55 LIVF 030255Z 15002KT CAVOK 03/M03 Q1010
 
LIPC - Cervia (it-Afb), Italy
Dati ricevuti: 03/04/2020 09:55
Sereno
Sereno
 Vento da OSO
Vento: OSO 4 km/h
Temperatura: 7°C
P.to Rugiada: 1°C
Umidità: 66%
Barometro: 1014 hPa
Summary: Sereno
Visibility: greater than 10 km
2020/04/03 07:55 LIPC 030755Z 25002KT CAVOK 07/01 Q1014
LIPR - Rimini (civ/It-A, Italy
Dati ricevuti: 03/04/2020 10:20
Sereno
Sereno
 Vento da NE
Vento: NE 6 km/h
Temperatura: 10°C
P.to Rugiada: 0°C
Umidità: 50%
Barometro: 1015 hPa
Summary: Sereno
Visibility: greater than 10 km
2020/04/03 08:20 LIPR 030820Z 05003KT 320V100 CAVOK 10/00 Q1015
 
LIRX - Monte Calamita, Italy
Dati ricevuti: 03/04/2020 09:55
Few Clouds
Few Clouds
 Vento da NNE
Vento: NNE 2 km/h
Temperatura: 10°C
P.to Rugiada: 7°C
Umidità: 82%
Barometro: 1011 hPa
Clouds: Few Clouds
Visibility: 10 km
Cloud details: Few Clouds 914 m
2020/04/03 07:55 LIRX 030755Z 02001KT 9999 FEW030 10/07 Q1011 RMK FEW VIS MIN 9999 VIS MAR 30 KM
LIVM - Punta Marina/Rav, Italy
Dati ricevuti: 03/04/2020 09:55
Sereno
Sereno
 Vento da O
Vento: O 6 km/h
Temperatura: 3°C
P.to Rugiada: -1°C
Umidità: 75%
Barometro: 1014 hPa
Summary: Sereno
Visibility: greater than 10 km
2020/04/03 07:55 LIVM 030755Z 28003KT 220V330 CAVOK 03/M01 Q1014 RMK SKC QUK 1 QUL 0 VIS MAR 15 KM VIS MIN 9999